Terminal Aerodrome Forecast
Issued by NWS

Home | Current Version | Previous Version | Graphics & Text | Print | Product List | Glossary Off
Versions: 1 2 3 4 5 6 7 8 9 10 11 12 13 14 15 16 17 18 19 20 21 22

000
FTUS43 KDDC 231738 CCA
TAFHYS
TAF COR
KHYS 231738Z 2318/2418 36015KT P6SM VCSH BKN120
     FM231900 36015KT P6SM SCT120
     FM232300 VRB06KT P6SM FEW250
     FM241700 11007KT P6SM FEW200=

USA.gov is the U.S. government's official web portal to all federal, state and local government web resources and services.